Terminal Aerodrome Forecast
Issued by NWS

Home | Current Version | Previous Version | Text Only | Print | Product List | Glossary On
Versions: 1 2 3 4 5 6 7 8 9 10 11 12 13 14 15 16 17 18
697
FTUS44 KBMX 051739
TAFMGM
TAF
KMGM 051739Z 0518/0618 30015G24KT P6SM FEW070
     FM060000 31010KT P6SM SKC
     FM060500 32005KT P6SM SKC
     FM061400 34012G17KT P6SM SKC=

USA.gov is the U.S. government's official web portal to all federal, state and local government web resources and services.